sensor_id;sensor_type;location;lat;lon;timestamp;temperature;humidity
20528;DHT22;23612;50.894;10.700;2022-11-14T00:00:10;2.50;99.90
20528;DHT22;23612;50.894;10.700;2022-11-14T00:02:37;2.60;99.90
20528;DHT22;23612;50.894;10.700;2022-11-14T00:05:03;2.50;99.90
20528;DHT22;23612;50.894;10.700;2022-11-14T00:07:30;2.50;99.90
20528;DHT22;23612;50.894;10.700;2022-11-14T00:09:55;2.50;99.90
20528;DHT22;23612;50.894;10.700;2022-11-14T00:12:21;2.50;99.90
20528;DHT22;23612;50.894;10.700;2022-11-14T00:14:47;2.40;99.90
20528;DHT22;23612;50.894;10.700;2022-11-14T00:17:12;2.50;99.90
20528;DHT22;23612;50.894;10.700;2022-11-14T00:19:38;2.60;99.90
20528;DHT22;23612;50.894;10.700;2022-11-14T00:22:03;2.60;99.90
20528;DHT22;23612;50.894;10.700;2022-11-14T00:24:29;2.70;99.90
20528;DHT22;23612;50.894;10.700;2022-11-14T00:26:55;2.60;99.90
20528;DHT22;23612;50.894;10.700;2022-11-14T00:29:20;2.60;99.90
20528;DHT22;23612;50.894;10.700;2022-11-14T00:31:46;2.70;99.90
20528;DHT22;23612;50.894;10.700;2022-11-14T00:34:11;2.50;99.90
20528;DHT22;23612;50.894;10.700;2022-11-14T00:36:37;2.50;99.90
20528;DHT22;23612;50.894;10.700;2022-11-14T00:39:03;2.40;99.90
20528;DHT22;23612;50.894;10.700;2022-11-14T00:41:29;2.40;99.90
20528;DHT22;23612;50.894;10.700;2022-11-14T00:43:54;2.30;99.90
20528;DHT22;23612;50.894;10.700;2022-11-14T00:46:20;2.30;99.90
20528;DHT22;23612;50.894;10.700;2022-11-14T00:48:45;2.30;99.90
20528;DHT22;23612;50.894;10.700;2022-11-14T00:51:11;2.20;99.90
20528;DHT22;23612;50.894;10.700;2022-11-14T00:53:37;2.00;99.90
20528;DHT22;23612;50.894;10.700;2022-11-14T00:56:03;2.00;99.90
20528;DHT22;23612;50.894;10.700;2022-11-14T00:58:28;2.00;99.90
20528;DHT22;23612;50.894;10.700;2022-11-14T01:00:54;2.00;99.90
20528;DHT22;23612;50.894;10.700;2022-11-14T01:03:19;2.00;99.90
20528;DHT22;23612;50.894;10.700;2022-11-14T01:05:47;1.90;99.90
20528;DHT22;23612;50.894;10.700;2022-11-14T01:08:14;1.90;99.90
20528;DHT22;23612;50.894;10.700;2022-11-14T01:10:46;1.80;99.90
20528;DHT22;23612;50.894;10.700;2022-11-14T01:13:12;1.70;99.90
20528;DHT22;23612;50.894;10.700;2022-11-14T01:15:47;1.70;99.90
20528;DHT22;23612;50.894;10.700;2022-11-14T01:18:15;1.80;99.90
20528;DHT22;23612;50.894;10.700;2022-11-14T01:20:43;1.80;99.90
20528;DHT22;23612;50.894;10.700;2022-11-14T01:23:10;1.80;99.90
20528;DHT22;23612;50.894;10.700;2022-11-14T01:25:38;1.80;99.90
20528;DHT22;23612;50.894;10.700;2022-11-14T01:28:09;1.90;99.90
20528;DHT22;23612;50.894;10.700;2022-11-14T01:30:36;1.90;99.90
20528;DHT22;23612;50.894;10.700;2022-11-14T01:33:02;1.90;99.90
20528;DHT22;23612;50.894;10.700;2022-11-14T01:35:28;2.00;99.90
20528;DHT22;23612;50.894;10.700;2022-11-14T01:37:53;1.90;99.90
20528;DHT22;23612;50.894;10.700;2022-11-14T01:40:19;2.00;99.90
20528;DHT22;23612;50.894;10.700;2022-11-14T01:45:51;2.00;99.90
20528;DHT22;23612;50.894;10.700;2022-11-14T01:48:23;2.10;99.90
20528;DHT22;23612;50.894;10.700;2022-11-14T01:50:54;2.20;99.90
20528;DHT22;23612;50.894;10.700;2022-11-14T01:53:21;2.30;99.90
20528;DHT22;23612;50.894;10.700;2022-11-14T01:55:47;2.30;99.90
20528;DHT22;23612;50.894;10.700;2022-11-14T01:58:13;2.30;99.90
20528;DHT22;23612;50.894;10.700;2022-11-14T02:00:40;2.20;99.90
20528;DHT22;23612;50.894;10.700;2022-11-14T02:03:06;2.20;99.90
20528;DHT22;23612;50.894;10.700;2022-11-14T02:05:31;2.20;99.90
20528;DHT22;23612;50.894;10.700;2022-11-14T02:07:58;2.30;99.90
20528;DHT22;23612;50.894;10.700;2022-11-14T02:10:23;2.20;99.90
20528;DHT22;23612;50.894;10.700;2022-11-14T02:12:49;2.10;99.90
20528;DHT22;23612;50.894;10.700;2022-11-14T02:15:15;2.10;99.90
20528;DHT22;23612;50.894;10.700;2022-11-14T02:17:42;2.20;99.90
20528;DHT22;23612;50.894;10.700;2022-11-14T02:22:38;2.10;99.90
20528;DHT22;23612;50.894;10.700;2022-11-14T02:25:06;2.10;99.90
20528;DHT22;23612;50.894;10.700;2022-11-14T02:27:33;2.10;99.90
20528;DHT22;23612;50.894;10.700;2022-11-14T02:30:07;2.10;99.90
20528;DHT22;23612;50.894;10.700;2022-11-14T02:32:33;2.10;99.90
20528;DHT22;23612;50.894;10.700;2022-11-14T02:34:59;2.10;99.90
20528;DHT22;23612;50.894;10.700;2022-11-14T02:37:25;2.00;99.90
20528;DHT22;23612;50.894;10.700;2022-11-14T02:39:50;2.00;99.90
20528;DHT22;23612;50.894;10.700;2022-11-14T02:42:16;2.10;99.90
20528;DHT22;23612;50.894;10.700;2022-11-14T02:44:41;2.00;99.90
20528;DHT22;23612;50.894;10.700;2022-11-14T02:47:07;2.00;99.90
20528;DHT22;23612;50.894;10.700;2022-11-14T02:49:32;2.00;99.90
20528;DHT22;23612;50.894;10.700;2022-11-14T02:51:58;2.00;99.90
20528;DHT22;23612;50.894;10.700;2022-11-14T02:54:23;2.00;99.90
20528;DHT22;23612;50.894;10.700;2022-11-14T02:56:49;2.00;99.90
20528;DHT22;23612;50.894;10.700;2022-11-14T02:59:15;2.00;99.90
20528;DHT22;23612;50.894;10.700;2022-11-14T03:01:40;2.00;99.90
20528;DHT22;23612;50.894;10.700;2022-11-14T03:04:06;1.90;99.90
20528;DHT22;23612;50.894;10.700;2022-11-14T03:06:31;1.90;99.90
20528;DHT22;23612;50.894;10.700;2022-11-14T03:08:57;1.90;99.90
20528;DHT22;23612;50.894;10.700;2022-11-14T03:11:22;1.80;99.90
20528;DHT22;23612;50.894;10.700;2022-11-14T03:13:48;1.80;99.90
20528;DHT22;23612;50.894;10.700;2022-11-14T03:16:13;1.80;99.90
20528;DHT22;23612;50.894;10.700;2022-11-14T03:18:39;1.80;99.90
20528;DHT22;23612;50.894;10.700;2022-11-14T03:21:13;1.90;99.90
20528;DHT22;23612;50.894;10.700;2022-11-14T03:23:39;1.80;99.90
20528;DHT22;23612;50.894;10.700;2022-11-14T03:26:07;1.70;99.90
20528;DHT22;23612;50.894;10.700;2022-11-14T03:28:33;1.70;99.90
20528;DHT22;23612;50.894;10.700;2022-11-14T03:30:58;1.70;99.90
20528;DHT22;23612;50.894;10.700;2022-11-14T03:33:24;1.80;99.90
20528;DHT22;23612;50.894;10.700;2022-11-14T03:35:50;1.80;99.90
20528;DHT22;23612;50.894;10.700;2022-11-14T03:38:17;1.80;99.90
20528;DHT22;23612;50.894;10.700;2022-11-14T03:40:42;1.70;99.90
20528;DHT22;23612;50.894;10.700;2022-11-14T03:43:08;1.70;99.90
20528;DHT22;23612;50.894;10.700;2022-11-14T03:45:36;1.80;99.90
20528;DHT22;23612;50.894;10.700;2022-11-14T03:48:02;1.70;99.90
20528;DHT22;23612;50.894;10.700;2022-11-14T03:50:27;1.70;99.90
20528;DHT22;23612;50.894;10.700;2022-11-14T03:52:53;1.70;99.90
20528;DHT22;23612;50.894;10.700;2022-11-14T03:55:19;1.60;99.90
20528;DHT22;23612;50.894;10.700;2022-11-14T03:57:44;1.50;99.90
20528;DHT22;23612;50.894;10.700;2022-11-14T04:00:10;1.50;99.90
20528;DHT22;23612;50.894;10.700;2022-11-14T04:02:36;1.40;99.90
20528;DHT22;23612;50.894;10.700;2022-11-14T04:05:01;1.40;99.90
20528;DHT22;23612;50.894;10.700;2022-11-14T04:07:27;1.40;99.90
20528;DHT22;23612;50.894;10.700;2022-11-14T04:09:52;1.40;99.90
20528;DHT22;23612;50.894;10.700;2022-11-14T04:12:18;1.40;99.90
20528;DHT22;23612;50.894;10.700;2022-11-14T04:14:43;1.30;99.90
20528;DHT22;23612;50.894;10.700;2022-11-14T04:17:10;1.40;99.90
20528;DHT22;23612;50.894;10.700;2022-11-14T04:19:35;1.20;99.90
20528;DHT22;23612;50.894;10.700;2022-11-14T04:22:01;1.20;99.90
20528;DHT22;23612;50.894;10.700;2022-11-14T04:24:27;1.20;99.90
20528;DHT22;23612;50.894;10.700;2022-11-14T04:26:52;1.10;99.90
20528;DHT22;23612;50.894;10.700;2022-11-14T04:29:18;1.20;99.90
20528;DHT22;23612;50.894;10.700;2022-11-14T04:31:43;1.20;99.90
20528;DHT22;23612;50.894;10.700;2022-11-14T04:34:09;1.10;99.90
20528;DHT22;23612;50.894;10.700;2022-11-14T04:36:35;1.10;99.90
20528;DHT22;23612;50.894;10.700;2022-11-14T04:39:00;0.90;99.90
20528;DHT22;23612;50.894;10.700;2022-11-14T04:41:26;0.90;99.90
20528;DHT22;23612;50.894;10.700;2022-11-14T04:43:51;0.80;99.90
20528;DHT22;23612;50.894;10.700;2022-11-14T04:46:17;0.70;99.90
20528;DHT22;23612;50.894;10.700;2022-11-14T04:48:42;0.80;99.90
20528;DHT22;23612;50.894;10.700;2022-11-14T04:51:08;0.70;99.90
20528;DHT22;23612;50.894;10.700;2022-11-14T04:53:34;0.80;99.90
20528;DHT22;23612;50.894;10.700;2022-11-14T04:55:59;0.60;99.90
20528;DHT22;23612;50.894;10.700;2022-11-14T04:58:25;0.60;99.90
20528;DHT22;23612;50.894;10.700;2022-11-14T05:00:51;0.50;99.90
20528;DHT22;23612;50.894;10.700;2022-11-14T05:03:16;0.50;99.90
20528;DHT22;23612;50.894;10.700;2022-11-14T05:05:42;0.50;99.90
20528;DHT22;23612;50.894;10.700;2022-11-14T05:08:07;0.40;99.90
20528;DHT22;23612;50.894;10.700;2022-11-14T05:10:33;0.60;99.90
20528;DHT22;23612;50.894;10.700;2022-11-14T05:12:58;0.50;99.90
20528;DHT22;23612;50.894;10.700;2022-11-14T05:15:24;0.40;99.90
20528;DHT22;23612;50.894;10.700;2022-11-14T05:17:49;0.40;99.90
20528;DHT22;23612;50.894;10.700;2022-11-14T05:20:15;0.40;99.90
20528;DHT22;23612;50.894;10.700;2022-11-14T05:22:41;0.40;99.90
20528;DHT22;23612;50.894;10.700;2022-11-14T05:25:07;0.30;99.90
20528;DHT22;23612;50.894;10.700;2022-11-14T05:27:32;0.30;99.90
20528;DHT22;23612;50.894;10.700;2022-11-14T05:29:58;0.20;99.90
20528;DHT22;23612;50.894;10.700;2022-11-14T05:32:23;0.20;99.90
20528;DHT22;23612;50.894;10.700;2022-11-14T05:34:49;0.20;99.90
20528;DHT22;23612;50.894;10.700;2022-11-14T05:37:14;0.10;99.90
20528;DHT22;23612;50.894;10.700;2022-11-14T05:39:40;0.10;99.90
20528;DHT22;23612;50.894;10.700;2022-11-14T05:42:06;0.10;99.90
20528;DHT22;23612;50.894;10.700;2022-11-14T05:44:31;0.10;99.90
20528;DHT22;23612;50.894;10.700;2022-11-14T05:46:57;0.10;99.90
20528;DHT22;23612;50.894;10.700;2022-11-14T05:49:23;0.00;99.90
20528;DHT22;23612;50.894;10.700;2022-11-14T05:51:48;0.00;99.90
20528;DHT22;23612;50.894;10.700;2022-11-14T05:54:14;0.00;99.90
20528;DHT22;23612;50.894;10.700;2022-11-14T05:56:39;0.10;99.90
20528;DHT22;23612;50.894;10.700;2022-11-14T05:59:05;0.10;99.90
20528;DHT22;23612;50.894;10.700;2022-11-14T06:01:30;0.10;99.90
20528;DHT22;23612;50.894;10.700;2022-11-14T06:03:56;0.20;99.90
20528;DHT22;23612;50.894;10.700;2022-11-14T06:06:22;0.20;99.90
20528;DHT22;23612;50.894;10.700;2022-11-14T06:08:48;0.30;99.90
20528;DHT22;23612;50.894;10.700;2022-11-14T06:11:17;0.30;99.90
20528;DHT22;23612;50.894;10.700;2022-11-14T06:13:43;0.40;99.90
20528;DHT22;23612;50.894;10.700;2022-11-14T06:16:14;0.50;99.90
20528;DHT22;23612;50.894;10.700;2022-11-14T06:18:40;0.50;99.90
20528;DHT22;23612;50.894;10.700;2022-11-14T06:21:09;0.50;99.90
20528;DHT22;23612;50.894;10.700;2022-11-14T06:23:35;0.50;99.90
20528;DHT22;23612;50.894;10.700;2022-11-14T06:26:04;0.50;99.90
20528;DHT22;23612;50.894;10.700;2022-11-14T06:28:30;0.60;99.90
20528;DHT22;23612;50.894;10.700;2022-11-14T06:31:00;0.60;99.90
20528;DHT22;23612;50.894;10.700;2022-11-14T06:33:26;0.70;99.90
20528;DHT22;23612;50.894;10.700;2022-11-14T06:36:04;0.70;99.90
20528;DHT22;23612;50.894;10.700;2022-11-14T06:38:31;0.70;99.90
20528;DHT22;23612;50.894;10.700;2022-11-14T06:41:12;0.70;99.90
20528;DHT22;23612;50.894;10.700;2022-11-14T06:43:44;0.70;99.90
20528;DHT22;23612;50.894;10.700;2022-11-14T06:46:13;0.70;99.90
20528;DHT22;23612;50.894;10.700;2022-11-14T06:48:39;0.70;99.90
20528;DHT22;23612;50.894;10.700;2022-11-14T06:51:06;0.80;99.90
20528;DHT22;23612;50.894;10.700;2022-11-14T06:53:33;0.90;99.90
20528;DHT22;23612;50.894;10.700;2022-11-14T06:56:08;0.90;99.90
20528;DHT22;23612;50.894;10.700;2022-11-14T06:58:37;0.90;99.90
20528;DHT22;23612;50.894;10.700;2022-11-14T07:03:35;0.80;99.90
20528;DHT22;23612;50.894;10.700;2022-11-14T07:06:01;0.80;99.90
20528;DHT22;23612;50.894;10.700;2022-11-14T07:08:26;0.80;99.90
20528;DHT22;23612;50.894;10.700;2022-11-14T07:10:52;0.90;99.90
20528;DHT22;23612;50.894;10.700;2022-11-14T07:13:18;0.90;99.90
20528;DHT22;23612;50.894;10.700;2022-11-14T07:15:53;0.90;99.90
20528;DHT22;23612;50.894;10.700;2022-11-14T07:18:19;0.90;99.90
20528;DHT22;23612;50.894;10.700;2022-11-14T07:20:45;1.00;99.90
20528;DHT22;23612;50.894;10.700;2022-11-14T07:23:11;1.10;99.90
20528;DHT22;23612;50.894;10.700;2022-11-14T07:25:36;1.20;99.90
20528;DHT22;23612;50.894;10.700;2022-11-14T07:28:02;1.20;99.90
20528;DHT22;23612;50.894;10.700;2022-11-14T07:30:28;1.20;99.90
20528;DHT22;23612;50.894;10.700;2022-11-14T07:32:57;1.30;99.90
20528;DHT22;23612;50.894;10.700;2022-11-14T07:35:24;1.40;99.90
20528;DHT22;23612;50.894;10.700;2022-11-14T07:37:50;1.50;99.90
20528;DHT22;23612;50.894;10.700;2022-11-14T07:40:16;1.60;99.90
20528;DHT22;23612;50.894;10.700;2022-11-14T07:42:42;1.70;99.90
20528;DHT22;23612;50.894;10.700;2022-11-14T07:45:09;1.70;99.90
20528;DHT22;23612;50.894;10.700;2022-11-14T07:47:34;1.80;99.90
20528;DHT22;23612;50.894;10.700;2022-11-14T07:50:00;1.90;99.90
20528;DHT22;23612;50.894;10.700;2022-11-14T07:52:26;1.90;99.90
20528;DHT22;23612;50.894;10.700;2022-11-14T07:54:51;2.00;99.90
20528;DHT22;23612;50.894;10.700;2022-11-14T07:57:17;2.10;99.90
20528;DHT22;23612;50.894;10.700;2022-11-14T07:59:42;2.10;99.90
20528;DHT22;23612;50.894;10.700;2022-11-14T08:02:12;2.20;99.90
20528;DHT22;23612;50.894;10.700;2022-11-14T08:04:42;2.30;99.90
20528;DHT22;23612;50.894;10.700;2022-11-14T08:07:07;2.40;99.90
20528;DHT22;23612;50.894;10.700;2022-11-14T08:09:33;2.40;99.90
20528;DHT22;23612;50.894;10.700;2022-11-14T08:11:58;2.50;99.90
20528;DHT22;23612;50.894;10.700;2022-11-14T08:14:25;2.50;99.90
20528;DHT22;23612;50.894;10.700;2022-11-14T08:16:51;2.50;99.90
20528;DHT22;23612;50.894;10.700;2022-11-14T08:19:17;2.50;99.90
20528;DHT22;23612;50.894;10.700;2022-11-14T08:21:43;2.60;99.90
20528;DHT22;23612;50.894;10.700;2022-11-14T08:24:09;2.60;99.90
20528;DHT22;23612;50.894;10.700;2022-11-14T08:26:34;2.70;99.90
20528;DHT22;23612;50.894;10.700;2022-11-14T08:29:00;2.80;99.90
20528;DHT22;23612;50.894;10.700;2022-11-14T08:31:25;2.70;99.90
20528;DHT22;23612;50.894;10.700;2022-11-14T08:33:51;2.80;99.90
20528;DHT22;23612;50.894;10.700;2022-11-14T08:36:17;2.80;99.90
20528;DHT22;23612;50.894;10.700;2022-11-14T08:38:43;2.90;99.90
20528;DHT22;23612;50.894;10.700;2022-11-14T08:41:09;2.90;99.90
20528;DHT22;23612;50.894;10.700;2022-11-14T08:43:35;2.80;99.90
20528;DHT22;23612;50.894;10.700;2022-11-14T08:46:02;2.90;99.90
20528;DHT22;23612;50.894;10.700;2022-11-14T08:48:29;3.00;99.90
20528;DHT22;23612;50.894;10.700;2022-11-14T08:50:55;2.80;99.90
20528;DHT22;23612;50.894;10.700;2022-11-14T08:53:20;2.90;99.90
20528;DHT22;23612;50.894;10.700;2022-11-14T08:55:47;3.00;99.90
20528;DHT22;23612;50.894;10.700;2022-11-14T08:58:13;3.00;99.90
20528;DHT22;23612;50.894;10.700;2022-11-14T09:00:39;3.10;99.90
20528;DHT22;23612;50.894;10.700;2022-11-14T09:03:11;3.10;99.90
20528;DHT22;23612;50.894;10.700;2022-11-14T09:05:41;3.20;99.90
20528;DHT22;23612;50.894;10.700;2022-11-14T09:08:07;3.30;99.90
20528;DHT22;23612;50.894;10.700;2022-11-14T09:10:33;3.50;99.90
20528;DHT22;23612;50.894;10.700;2022-11-14T09:13:00;3.50;99.90
20528;DHT22;23612;50.894;10.700;2022-11-14T09:15:29;3.60;99.90
20528;DHT22;23612;50.894;10.700;2022-11-14T09:17:56;3.60;99.90
20528;DHT22;23612;50.894;10.700;2022-11-14T09:20:23;3.80;99.90
20528;DHT22;23612;50.894;10.700;2022-11-14T09:22:49;3.90;99.90
20528;DHT22;23612;50.894;10.700;2022-11-14T09:25:19;3.90;99.90
20528;DHT22;23612;50.894;10.700;2022-11-14T09:27:45;4.10;99.90
20528;DHT22;23612;50.894;10.700;2022-11-14T09:30:11;4.10;99.90
20528;DHT22;23612;50.894;10.700;2022-11-14T09:32:37;4.10;99.90
20528;DHT22;23612;50.894;10.700;2022-11-14T09:35:02;4.10;99.90
20528;DHT22;23612;50.894;10.700;2022-11-14T09:37:28;4.00;99.90
20528;DHT22;23612;50.894;10.700;2022-11-14T09:39:54;4.10;99.90
20528;DHT22;23612;50.894;10.700;2022-11-14T09:45:35;4.40;99.90
20528;DHT22;23612;50.894;10.700;2022-11-14T09:48:14;4.60;99.90
20528;DHT22;23612;50.894;10.700;2022-11-14T09:50:47;4.80;99.90
20528;DHT22;23612;50.894;10.700;2022-11-14T09:53:33;4.90;99.90
20528;DHT22;23612;50.894;10.700;2022-11-14T09:56:01;5.00;99.90
20528;DHT22;23612;50.894;10.700;2022-11-14T09:58:27;5.30;99.90
20528;DHT22;23612;50.894;10.700;2022-11-14T10:00:57;5.30;99.90
20528;DHT22;23612;50.894;10.700;2022-11-14T10:03:41;5.40;99.90
20528;DHT22;23612;50.894;10.700;2022-11-14T10:06:15;5.70;99.90
20528;DHT22;23612;50.894;10.700;2022-11-14T10:17:46;6.10;99.90
20528;DHT22;23612;50.894;10.700;2022-11-14T10:20:28;6.00;99.90
20528;DHT22;23612;50.894;10.700;2022-11-14T10:25:44;6.00;99.90
20528;DHT22;23612;50.894;10.700;2022-11-14T10:36:53;6.10;99.90
20528;DHT22;23612;50.894;10.700;2022-11-14T10:39:30;5.90;99.90
20528;DHT22;23612;50.894;10.700;2022-11-14T10:42:02;6.30;99.90
20528;DHT22;23612;50.894;10.700;2022-11-14T10:44:37;6.70;99.90
20528;DHT22;23612;50.894;10.700;2022-11-14T10:47:07;6.60;99.90
20528;DHT22;23612;50.894;10.700;2022-11-14T10:49:35;6.30;99.90
20528;DHT22;23612;50.894;10.700;2022-11-14T10:52:05;6.50;99.90
20528;DHT22;23612;50.894;10.700;2022-11-14T10:54:44;6.40;99.90
20528;DHT22;23612;50.894;10.700;2022-11-14T10:57:19;6.30;99.90
20528;DHT22;23612;50.894;10.700;2022-11-14T10:59:45;6.40;99.90
20528;DHT22;23612;50.894;10.700;2022-11-14T11:02:12;6.40;99.90
20528;DHT22;23612;50.894;10.700;2022-11-14T11:04:42;6.80;99.90
20528;DHT22;23612;50.894;10.700;2022-11-14T11:09:35;6.90;99.90
20528;DHT22;23612;50.894;10.700;2022-11-14T11:12:43;6.80;99.90
20528;DHT22;23612;50.894;10.700;2022-11-14T11:15:17;7.10;99.90
20528;DHT22;23612;50.894;10.700;2022-11-14T11:17:55;7.20;99.90
20528;DHT22;23612;50.894;10.700;2022-11-14T11:20:34;7.50;99.90
20528;DHT22;23612;50.894;10.700;2022-11-14T11:25:36;7.40;99.90
20528;DHT22;23612;50.894;10.700;2022-11-14T11:30:38;7.80;99.90
20528;DHT22;23612;50.894;10.700;2022-11-14T11:35:40;7.90;99.90
20528;DHT22;23612;50.894;10.700;2022-11-14T11:38:08;7.60;99.90
20528;DHT22;23612;50.894;10.700;2022-11-14T11:40:36;7.50;99.90
20528;DHT22;23612;50.894;10.700;2022-11-14T11:43:08;7.50;99.90
20528;DHT22;23612;50.894;10.700;2022-11-14T11:45:35;7.40;99.90
20528;DHT22;23612;50.894;10.700;2022-11-14T11:48:16;7.40;99.90
20528;DHT22;23612;50.894;10.700;2022-11-14T11:50:42;7.40;99.90
20528;DHT22;23612;50.894;10.700;2022-11-14T11:53:21;7.40;99.90
20528;DHT22;23612;50.894;10.700;2022-11-14T11:55:50;7.50;99.90
20528;DHT22;23612;50.894;10.700;2022-11-14T12:00:46;7.50;99.90
20528;DHT22;23612;50.894;10.700;2022-11-14T12:03:13;7.60;99.90
20528;DHT22;23612;50.894;10.700;2022-11-14T12:11:30;9.10;99.90
20528;DHT22;23612;50.894;10.700;2022-11-14T12:17:11;11.50;99.90
20528;DHT22;23612;50.894;10.700;2022-11-14T12:19:49;12.70;99.90
20528;DHT22;23612;50.894;10.700;2022-11-14T12:22:45;13.40;99.90
20528;DHT22;23612;50.894;10.700;2022-11-14T12:25:27;14.10;99.90
20528;DHT22;23612;50.894;10.700;2022-11-14T12:30:58;15.30;99.90
20528;DHT22;23612;50.894;10.700;2022-11-14T12:33:37;15.40;99.90
20528;DHT22;23612;50.894;10.700;2022-11-14T12:36:07;15.30;99.90
20528;DHT22;23612;50.894;10.700;2022-11-14T12:41:08;16.20;99.90
20528;DHT22;23612;50.894;10.700;2022-11-14T12:43:36;16.40;99.90
20528;DHT22;23612;50.894;10.700;2022-11-14T12:46:06;16.20;99.90
20528;DHT22;23612;50.894;10.700;2022-11-14T12:48:40;16.50;99.90
20528;DHT22;23612;50.894;10.700;2022-11-14T12:53:56;17.30;99.90
20528;DHT22;23612;50.894;10.700;2022-11-14T12:56:51;17.60;99.90
20528;DHT22;23612;50.894;10.700;2022-11-14T12:59:37;18.20;99.90
20528;DHT22;23612;50.894;10.700;2022-11-14T13:05:36;18.10;99.90
20528;DHT22;23612;50.894;10.700;2022-11-14T13:10:38;18.40;99.90
20528;DHT22;23612;50.894;10.700;2022-11-14T13:13:09;17.80;99.90
20528;DHT22;23612;50.894;10.700;2022-11-14T13:16:01;17.70;99.90
20528;DHT22;23612;50.894;10.700;2022-11-14T13:18:51;17.90;99.90
20528;DHT22;23612;50.894;10.700;2022-11-14T13:21:36;18.30;99.90
20528;DHT22;23612;50.894;10.700;2022-11-14T13:24:18;18.50;99.90
20528;DHT22;23612;50.894;10.700;2022-11-14T13:26:45;18.50;99.90
20528;DHT22;23612;50.894;10.700;2022-11-14T13:32:11;18.30;99.90
20528;DHT22;23612;50.894;10.700;2022-11-14T13:34:52;18.10;99.90
20528;DHT22;23612;50.894;10.700;2022-11-14T13:40:03;17.50;99.90
20528;DHT22;23612;50.894;10.700;2022-11-14T13:45:36;16.90;99.90
20528;DHT22;23612;50.894;10.700;2022-11-14T13:51:13;16.30;99.90
20528;DHT22;23612;50.894;10.700;2022-11-14T13:53:40;16.10;99.90
20528;DHT22;23612;50.894;10.700;2022-11-14T14:13:25;13.20;99.90
20528;DHT22;23612;50.894;10.700;2022-11-14T14:16:06;13.00;99.90
20528;DHT22;23612;50.894;10.700;2022-11-14T14:22:37;12.70;99.90
20528;DHT22;23612;50.894;10.700;2022-11-14T14:32:17;11.40;99.90
20528;DHT22;23612;50.894;10.700;2022-11-14T14:34:43;11.20;99.90
20528;DHT22;23612;50.894;10.700;2022-11-14T14:37:18;11.20;99.90
20528;DHT22;23612;50.894;10.700;2022-11-14T14:40:01;11.10;99.90
20528;DHT22;23612;50.894;10.700;2022-11-14T14:42:33;11.20;99.90
20528;DHT22;23612;50.894;10.700;2022-11-14T14:45:02;11.10;99.90
20528;DHT22;23612;50.894;10.700;2022-11-14T14:47:32;11.00;99.90
20528;DHT22;23612;50.894;10.700;2022-11-14T14:50:00;10.90;99.90
20528;DHT22;23612;50.894;10.700;2022-11-14T14:52:34;10.90;99.90
20528;DHT22;23612;50.894;10.700;2022-11-14T14:55:02;10.70;99.90
20528;DHT22;23612;50.894;10.700;2022-11-14T14:57:29;10.50;99.90
20528;DHT22;23612;50.894;10.700;2022-11-14T15:00:27;10.30;99.90
20528;DHT22;23612;50.894;10.700;2022-11-14T15:02:55;10.10;99.90
20528;DHT22;23612;50.894;10.700;2022-11-14T15:05:22;9.90;99.90
20528;DHT22;23612;50.894;10.700;2022-11-14T15:07:50;9.60;99.90
20528;DHT22;23612;50.894;10.700;2022-11-14T15:10:22;9.40;99.90
20528;DHT22;23612;50.894;10.700;2022-11-14T15:12:49;9.20;99.90
20528;DHT22;23612;50.894;10.700;2022-11-14T15:15:16;8.90;99.90
20528;DHT22;23612;50.894;10.700;2022-11-14T15:17:43;8.80;99.90
20528;DHT22;23612;50.894;10.700;2022-11-14T15:20:23;8.60;99.90
20528;DHT22;23612;50.894;10.700;2022-11-14T15:25:35;8.30;99.90
20528;DHT22;23612;50.894;10.700;2022-11-14T15:28:01;8.10;99.90
20528;DHT22;23612;50.894;10.700;2022-11-14T15:30:29;7.90;99.90
20528;DHT22;23612;50.894;10.700;2022-11-14T15:32:57;7.80;99.90
20528;DHT22;23612;50.894;10.700;2022-11-14T15:35:41;7.70;99.90
20528;DHT22;23612;50.894;10.700;2022-11-14T15:40:37;7.50;99.90
20528;DHT22;23612;50.894;10.700;2022-11-14T15:46:25;7.40;99.90
20528;DHT22;23612;50.894;10.700;2022-11-14T15:48:51;7.30;99.90
20528;DHT22;23612;50.894;10.700;2022-11-14T15:51:16;7.30;99.90
20528;DHT22;23612;50.894;10.700;2022-11-14T15:53:45;7.30;99.90
20528;DHT22;23612;50.894;10.700;2022-11-14T15:56:12;7.30;99.90
20528;DHT22;23612;50.894;10.700;2022-11-14T15:58:38;7.40;99.90
20528;DHT22;23612;50.894;10.700;2022-11-14T16:01:04;7.30;99.90
20528;DHT22;23612;50.894;10.700;2022-11-14T16:03:33;7.40;99.90
20528;DHT22;23612;50.894;10.700;2022-11-14T16:05:59;7.40;99.90
20528;DHT22;23612;50.894;10.700;2022-11-14T16:08:24;7.40;99.90
20528;DHT22;23612;50.894;10.700;2022-11-14T16:10:50;7.40;99.90
20528;DHT22;23612;50.894;10.700;2022-11-14T16:13:15;7.50;99.90
20528;DHT22;23612;50.894;10.700;2022-11-14T16:15:41;7.60;99.90
20528;DHT22;23612;50.894;10.700;2022-11-14T16:18:06;7.60;99.90
20528;DHT22;23612;50.894;10.700;2022-11-14T16:20:32;7.70;99.90
20528;DHT22;23612;50.894;10.700;2022-11-14T16:23:02;7.70;99.90
20528;DHT22;23612;50.894;10.700;2022-11-14T16:25:29;7.80;99.90
20528;DHT22;23612;50.894;10.700;2022-11-14T16:27:55;7.80;99.90
20528;DHT22;23612;50.894;10.700;2022-11-14T16:30:22;7.80;99.90
20528;DHT22;23612;50.894;10.700;2022-11-14T16:32:50;7.70;99.90
20528;DHT22;23612;50.894;10.700;2022-11-14T16:35:21;7.60;99.90
20528;DHT22;23612;50.894;10.700;2022-11-14T16:37:48;7.60;99.90
20528;DHT22;23612;50.894;10.700;2022-11-14T16:40:17;7.50;99.90
20528;DHT22;23612;50.894;10.700;2022-11-14T16:42:44;7.50;99.90
20528;DHT22;23612;50.894;10.700;2022-11-14T16:45:10;7.40;99.90
20528;DHT22;23612;50.894;10.700;2022-11-14T16:47:37;7.30;99.90
20528;DHT22;23612;50.894;10.700;2022-11-14T16:50:03;7.10;99.90
20528;DHT22;23612;50.894;10.700;2022-11-14T16:52:29;7.20;99.90
20528;DHT22;23612;50.894;10.700;2022-11-14T16:54:54;7.30;99.90
20528;DHT22;23612;50.894;10.700;2022-11-14T16:57:20;7.40;99.90
20528;DHT22;23612;50.894;10.700;2022-11-14T16:59:45;7.70;99.90
20528;DHT22;23612;50.894;10.700;2022-11-14T17:02:13;7.90;99.90
20528;DHT22;23612;50.894;10.700;2022-11-14T17:04:40;8.20;99.90
20528;DHT22;23612;50.894;10.700;2022-11-14T17:07:07;8.40;99.90
20528;DHT22;23612;50.894;10.700;2022-11-14T17:09:33;8.50;99.90
20528;DHT22;23612;50.894;10.700;2022-11-14T17:11:59;8.70;99.90
20528;DHT22;23612;50.894;10.700;2022-11-14T17:14:24;8.90;99.90
20528;DHT22;23612;50.894;10.700;2022-11-14T17:16:50;8.90;99.90
20528;DHT22;23612;50.894;10.700;2022-11-14T17:19:15;8.80;99.90
20528;DHT22;23612;50.894;10.700;2022-11-14T17:21:42;8.80;99.90
20528;DHT22;23612;50.894;10.700;2022-11-14T17:24:08;8.70;99.90
20528;DHT22;23612;50.894;10.700;2022-11-14T17:26:33;8.70;99.90
20528;DHT22;23612;50.894;10.700;2022-11-14T17:28:59;8.60;99.90
20528;DHT22;23612;50.894;10.700;2022-11-14T17:31:25;8.50;99.90